createdAt,value
2022-08-26T00:01:55.658Z,28.60
2022-08-26T00:04:25.211Z,22.52
2022-08-26T00:06:53.753Z,18.65
2022-08-26T00:09:21.423Z,22.52
2022-08-26T00:11:48.669Z,24.95
2022-08-26T00:14:16.421Z,30.27
2022-08-26T00:16:47.479Z,21.77
2022-08-26T00:19:17.920Z,27.67
2022-08-26T00:21:46.289Z,22.60
2022-08-26T00:24:16.092Z,21.50
2022-08-26T00:26:43.790Z,21.50
2022-08-26T00:29:12.348Z,29.00
2022-08-26T00:31:40.722Z,20.05
2022-08-26T00:34:09.588Z,21.13
2022-08-26T00:36:40.729Z,36.35
2022-08-26T00:39:09.474Z,28.40
2022-08-26T00:41:39.881Z,32.72
2022-08-26T00:44:08.184Z,32.80
2022-08-26T00:46:39.871Z,34.35
2022-08-26T00:49:20.445Z,23.45
2022-08-26T00:51:51.404Z,32.70
2022-08-26T00:54:20.540Z,24.17
2022-08-26T00:57:08.752Z,22.52
2022-08-26T00:59:46.528Z,29.85
2022-08-26T01:02:20.959Z,28.52
2022-08-26T01:04:55.631Z,29.08
2022-08-26T01:07:25.091Z,25.15
2022-08-26T01:09:52.255Z,23.02
2022-08-26T01:12:22.119Z,26.88
2022-08-26T01:14:49.578Z,27.63
2022-08-26T01:17:17.306Z,26.77
2022-08-26T01:20:02.923Z,24.17
2022-08-26T01:22:52.257Z,21.63
2022-08-26T01:25:20.581Z,30.75
2022-08-26T01:27:49.700Z,27.15
2022-08-26T01:30:17.856Z,33.20
2022-08-26T01:32:45.405Z,33.88
2022-08-26T01:35:12.365Z,30.67
2022-08-26T01:37:40.815Z,28.50
2022-08-26T01:40:10.478Z,26.95
2022-08-26T01:42:37.613Z,32.08
2022-08-26T01:45:11.059Z,30.35
2022-08-26T01:47:38.909Z,32.17
2022-08-26T01:50:11.625Z,27.92
2022-08-26T01:52:41.938Z,31.38
2022-08-26T01:55:10.588Z,32.47
2022-08-26T01:57:37.718Z,31.42
2022-08-26T02:00:08.980Z,43.92
2022-08-26T02:02:40.850Z,29.88
2022-08-26T02:05:14.936Z,30.20
2022-08-26T02:07:42.454Z,37.78
2022-08-26T02:10:10.965Z,28.55
2022-08-26T02:12:39.303Z,35.63
2022-08-26T02:15:09.784Z,36.80
2022-08-26T02:17:42.896Z,40.67
2022-08-26T02:20:17.658Z,31.70
2022-08-26T02:22:48.498Z,30.65
2022-08-26T02:25:20.796Z,32.42
2022-08-26T02:27:48.416Z,41.88
2022-08-26T02:30:19.076Z,30.38
2022-08-26T02:32:46.499Z,31.25
2022-08-26T02:35:20.361Z,30.70
2022-08-26T02:37:49.505Z,28.58
2022-08-26T02:40:20.790Z,33.75
2022-08-26T02:42:49.063Z,31.05
2022-08-26T02:45:16.772Z,39.63
2022-08-26T02:47:51.171Z,31.33
2022-08-26T02:50:18.139Z,35.22
2022-08-26T02:52:44.990Z,27.38
2022-08-26T02:55:11.936Z,40.88
2022-08-26T02:57:38.933Z,28.33
2022-08-26T03:00:09.132Z,28.20
2022-08-26T03:02:35.959Z,37.28
2022-08-26T03:05:02.920Z,33.72
2022-08-26T03:07:31.030Z,35.15
2022-08-26T03:09:58.533Z,32.67
2022-08-26T03:12:26.087Z,44.88
2022-08-26T03:14:53.699Z,37.75
2022-08-26T03:17:21.100Z,35.20
2022-08-26T03:19:51.722Z,46.75
2022-08-26T03:24:48.255Z,35.70
2022-08-26T03:27:16.043Z,31.55
2022-08-26T03:30:03.795Z,33.00
2022-08-26T03:32:34.712Z,38.80
2022-08-26T03:35:05.498Z,37.50
2022-08-26T03:37:33.603Z,40.33
2022-08-26T03:40:01.059Z,39.45
2022-08-26T03:42:28.498Z,35.35
2022-08-26T03:44:55.375Z,37.25
2022-08-26T03:47:22.313Z,35.72
2022-08-26T03:49:49.117Z,37.50
2022-08-26T03:52:19.408Z,39.33
2022-08-26T03:54:46.755Z,48.60
2022-08-26T03:57:14.176Z,44.83
2022-08-26T03:59:43.778Z,56.47
2022-08-26T04:02:11.639Z,41.20
2022-08-26T04:04:39.129Z,44.65
2022-08-26T04:07:06.179Z,41.38
2022-08-26T04:12:37.636Z,62.85
2022-08-26T04:15:10.421Z,40.83
2022-08-26T04:17:37.602Z,47.38
2022-08-26T04:20:06.056Z,45.35
2022-08-26T04:22:34.151Z,46.47
2022-08-26T04:25:01.718Z,48.63
2022-08-26T04:27:28.816Z,48.90
2022-08-26T04:29:55.767Z,54.50
2022-08-26T04:32:22.753Z,52.25
2022-08-26T04:34:49.952Z,59.80
2022-08-26T04:37:33.933Z,53.08
2022-08-26T04:40:00.957Z,47.10
2022-08-26T04:42:29.323Z,51.83
2022-08-26T04:44:56.322Z,49.90
2022-08-26T04:47:23.198Z,49.88
2022-08-26T04:49:50.239Z,69.75
2022-08-26T04:52:17.643Z,49.63
2022-08-26T04:54:44.816Z,87.65
2022-08-26T04:57:12.737Z,78.90
2022-08-26T04:59:40.397Z,88.75
2022-08-26T05:02:08.059Z,71.80
2022-08-26T05:04:36.372Z,81.25
2022-08-26T05:07:03.860Z,53.40
2022-08-26T05:09:31.252Z,60.15
2022-08-26T05:11:59.354Z,93.35
2022-08-26T05:14:26.792Z,83.47
2022-08-26T05:16:54.097Z,65.05
2022-08-26T05:19:21.191Z,43.88
2022-08-26T05:21:54.210Z,54.33
2022-08-26T05:24:21.980Z,41.40
2022-08-26T05:26:49.591Z,27.17
2022-08-26T05:29:17.000Z,27.38
2022-08-26T05:31:43.966Z,21.73
2022-08-26T05:34:10.983Z,28.23
2022-08-26T05:36:38.875Z,19.58
2022-08-26T05:39:07.189Z,23.00
2022-08-26T05:41:38.292Z,24.98
2022-08-26T05:44:10.726Z,29.00
2022-08-26T05:46:38.533Z,26.73
2022-08-26T05:49:12.740Z,19.50
2022-08-26T05:51:45.220Z,40.72
2022-08-26T05:54:13.128Z,26.00
2022-08-26T05:56:40.364Z,14.50
2022-08-26T05:59:14.239Z,27.27
2022-08-26T06:01:43.612Z,16.23
2022-08-26T06:04:11.586Z,27.73
2022-08-26T06:06:41.397Z,16.70
2022-08-26T06:09:11.132Z,16.45
2022-08-26T06:11:39.295Z,17.20
2022-08-26T06:14:07.864Z,15.55
2022-08-26T06:16:38.678Z,19.13
2022-08-26T06:19:10.655Z,19.02
2022-08-26T06:21:40.192Z,12.00
2022-08-26T06:24:30.725Z,13.77
2022-08-26T06:27:03.406Z,17.40
2022-08-26T06:29:33.562Z,18.60
2022-08-26T06:32:01.353Z,26.33
2022-08-26T06:34:30.537Z,18.55
2022-08-26T06:37:01.852Z,18.58
2022-08-26T06:39:30.634Z,19.58
2022-08-26T06:42:01.136Z,18.58
2022-08-26T06:44:30.321Z,29.53
2022-08-26T06:46:57.443Z,19.90
2022-08-26T06:49:27.240Z,14.10
2022-08-26T06:51:58.634Z,26.00
2022-08-26T06:54:27.599Z,15.75
2022-08-26T06:56:56.981Z,18.80
2022-08-26T06:59:24.959Z,11.02
2022-08-26T07:01:52.435Z,14.98
2022-08-26T07:04:23.218Z,26.42
2022-08-26T07:06:52.679Z,19.45
2022-08-26T07:09:26.357Z,13.55
2022-08-26T07:11:56.216Z,13.93
2022-08-26T07:14:24.975Z,17.70
2022-08-26T07:16:53.651Z,12.55
2022-08-26T07:19:29.966Z,7.90
2022-08-26T07:22:03.837Z,13.70
2022-08-26T07:24:36.582Z,20.90
2022-08-26T07:27:08.668Z,16.48
2022-08-26T07:29:37.249Z,17.00
2022-08-26T07:32:04.762Z,18.50
2022-08-26T07:34:33.162Z,11.52
2022-08-26T07:37:01.021Z,14.85
2022-08-26T07:39:28.304Z,17.13
2022-08-26T07:42:01.021Z,17.15
2022-08-26T07:44:28.283Z,9.45
2022-08-26T07:46:55.254Z,14.88
2022-08-26T07:49:24.495Z,9.60
2022-08-26T07:51:54.439Z,11.32
2022-08-26T07:54:26.798Z,17.63
2022-08-26T07:56:54.462Z,8.52
2022-08-26T07:59:23.334Z,19.92
2022-08-26T08:01:50.825Z,11.93
2022-08-26T08:04:25.569Z,11.60
2022-08-26T08:06:53.900Z,17.65
2022-08-26T08:09:22.397Z,14.98
2022-08-26T08:11:50.131Z,15.52
2022-08-26T08:14:22.163Z,16.33
2022-08-26T08:16:53.598Z,12.80
2022-08-26T08:19:23.230Z,8.60
2022-08-26T08:21:51.036Z,14.55
2022-08-26T08:24:18.502Z,14.18
2022-08-26T08:26:46.057Z,18.27
2022-08-26T08:29:13.089Z,13.95
2022-08-26T08:31:58.357Z,12.45
2022-08-26T08:34:29.418Z,15.15
2022-08-26T08:36:57.197Z,10.05
2022-08-26T08:39:25.428Z,8.60
2022-08-26T08:42:19.615Z,18.27
2022-08-26T08:44:52.781Z,15.73
2022-08-26T08:47:34.181Z,8.70
2022-08-26T08:50:24.953Z,15.32
2022-08-26T08:52:58.284Z,12.30
2022-08-26T08:55:35.248Z,17.75
2022-08-26T08:58:08.255Z,16.88
2022-08-26T09:01:03.108Z,13.30
2022-08-26T09:03:34.966Z,14.65
2022-08-26T09:06:03.295Z,9.98
2022-08-26T09:08:35.167Z,13.90
2022-08-26T09:13:31.559Z,12.57
2022-08-26T09:16:03.448Z,26.05
2022-08-26T09:18:52.731Z,16.00
2022-08-26T09:21:23.307Z,14.25
2022-08-26T09:23:51.543Z,16.50
2022-08-26T09:26:25.946Z,13.57
2022-08-26T09:29:00.039Z,23.83
2022-08-26T09:31:34.127Z,18.37
2022-08-26T09:34:28.913Z,18.88
2022-08-26T09:37:00.134Z,11.20
2022-08-26T09:39:37.889Z,26.85
2022-08-26T09:42:06.711Z,14.88
2022-08-26T09:44:35.647Z,11.52
2022-08-26T09:47:06.958Z,18.38
2022-08-26T09:49:39.520Z,18.52
2022-08-26T09:52:07.850Z,14.80
2022-08-26T09:54:35.800Z,33.10
2022-08-26T09:57:21.093Z,20.10
2022-08-26T09:59:49.524Z,20.35
2022-08-26T10:02:31.700Z,13.27
2022-08-26T10:05:09.617Z,13.55
2022-08-26T10:07:49.166Z,13.63
2022-08-26T10:10:38.059Z,13.77
2022-08-26T10:13:11.230Z,24.35
2022-08-26T10:15:53.167Z,26.45
2022-08-26T10:18:24.711Z,14.60
2022-08-26T10:21:02.684Z,20.55
2022-08-26T10:23:35.338Z,22.38
2022-08-26T10:26:21.351Z,29.52
2022-08-26T10:29:20.341Z,24.83
2022-08-26T10:31:55.401Z,15.60
2022-08-26T10:34:29.885Z,14.48
2022-08-26T10:37:15.828Z,25.63
2022-08-26T10:40:04.620Z,12.32
2022-08-26T10:42:42.592Z,15.38
2022-08-26T10:45:15.115Z,12.63
2022-08-26T10:47:51.883Z,15.10
2022-08-26T10:50:19.485Z,15.52
2022-08-26T10:53:24.920Z,15.68
2022-08-26T10:56:18.842Z,11.80
2022-08-26T10:58:55.056Z,9.95
2022-08-26T11:01:42.367Z,21.38
2022-08-26T11:04:37.177Z,10.45
2022-08-26T11:07:32.095Z,16.08
2022-08-26T11:10:06.042Z,18.05
2022-08-26T11:12:37.221Z,14.82
2022-08-26T11:15:30.741Z,13.38
2022-08-26T11:20:30.093Z,9.35
2022-08-26T11:23:22.728Z,12.15
2022-08-26T11:25:57.516Z,8.00
2022-08-26T11:28:35.545Z,15.70
2022-08-26T11:31:04.486Z,12.52
2022-08-26T11:33:44.008Z,9.48
2022-08-26T11:36:12.602Z,8.77
2022-08-26T11:38:43.512Z,8.50
2022-08-26T11:41:14.295Z,6.50
2022-08-26T11:43:42.613Z,10.00
2022-08-26T11:46:11.976Z,12.20
2022-08-26T11:48:41.943Z,5.90
2022-08-26T11:51:22.894Z,6.75
2022-08-26T11:53:50.697Z,7.90
2022-08-26T11:56:31.734Z,9.95
2022-08-26T11:59:01.457Z,12.50
2022-08-26T12:01:31.560Z,10.45
2022-08-26T12:03:59.941Z,11.45
2022-08-26T12:06:42.010Z,8.57
2022-08-26T12:09:25.946Z,12.32
2022-08-26T12:11:57.984Z,12.73
2022-08-26T12:14:27.693Z,16.70
2022-08-26T12:16:54.870Z,7.57
2022-08-26T12:19:27.334Z,13.88
2022-08-26T12:24:25.340Z,7.35
2022-08-26T12:27:14.379Z,11.63
2022-08-26T12:29:41.587Z,7.35
2022-08-26T12:32:17.650Z,5.50
2022-08-26T12:34:45.862Z,18.35
2022-08-26T12:37:14.049Z,10.18
2022-08-26T12:39:44.471Z,8.27
2022-08-26T12:42:17.239Z,10.32
2022-08-26T12:47:43.415Z,5.90
2022-08-26T12:50:24.410Z,14.02
2022-08-26T12:53:11.808Z,6.97
2022-08-26T12:55:50.105Z,15.02
2022-08-26T12:58:27.282Z,18.05
2022-08-26T13:00:58.179Z,7.43
2022-08-26T13:03:37.490Z,9.00
2022-08-26T13:06:15.495Z,15.00
2022-08-26T13:08:48.397Z,11.27
2022-08-26T13:11:24.804Z,10.18
2022-08-26T13:14:00.294Z,7.65
2022-08-26T13:16:29.383Z,7.80
2022-08-26T13:19:01.508Z,9.30
2022-08-26T13:21:37.467Z,9.77
2022-08-26T13:24:08.388Z,9.45
2022-08-26T13:26:35.688Z,14.18
2022-08-26T13:29:09.570Z,7.20
2022-08-26T13:31:39.646Z,9.35
2022-08-26T13:34:07.962Z,12.75
2022-08-26T13:36:34.860Z,7.00
2022-08-26T13:39:01.821Z,6.18
2022-08-26T13:41:29.973Z,7.18
2022-08-26T13:43:58.211Z,6.28
2022-08-26T13:46:27.309Z,5.75
2022-08-26T13:48:54.645Z,25.67
2022-08-26T13:51:22.989Z,11.70
2022-08-26T13:53:50.919Z,10.70
2022-08-26T13:56:18.852Z,6.40
2022-08-26T13:58:46.684Z,11.93
2022-08-26T14:01:15.823Z,17.67
2022-08-26T14:03:43.732Z,11.18
2022-08-26T14:06:10.694Z,11.80
2022-08-26T14:08:38.926Z,19.48
2022-08-26T14:11:06.720Z,3.95
2022-08-26T14:13:33.977Z,5.57
2022-08-26T14:16:02.381Z,12.55
2022-08-26T14:18:33.242Z,10.25
2022-08-26T14:21:01.048Z,14.18
2022-08-26T14:23:28.263Z,13.80
2022-08-26T14:25:55.310Z,11.60
2022-08-26T14:28:22.295Z,12.55
2022-08-26T14:30:55.025Z,12.77
2022-08-26T14:33:25.001Z,22.88
2022-08-26T14:35:52.409Z,14.82
2022-08-26T14:38:19.352Z,6.40
2022-08-26T14:40:46.221Z,11.40
2022-08-26T14:43:16.432Z,14.68
2022-08-26T14:45:44.248Z,14.55
2022-08-26T14:48:11.340Z,16.92
2022-08-26T14:50:38.523Z,10.30
2022-08-26T14:53:23.994Z,11.77
2022-08-26T14:55:51.838Z,10.00
2022-08-26T14:58:18.838Z,10.23
2022-08-26T15:00:46.383Z,14.13
2022-08-26T15:05:48.063Z,8.73
2022-08-26T15:08:16.994Z,8.43
2022-08-26T15:10:44.644Z,7.10
2022-08-26T15:13:11.770Z,10.80
2022-08-26T15:15:38.796Z,9.98
2022-08-26T15:18:06.037Z,12.80
2022-08-26T15:23:06.945Z,12.07
2022-08-26T15:25:33.920Z,4.13
2022-08-26T15:28:00.974Z,17.40
2022-08-26T15:30:28.195Z,24.48
2022-08-26T15:32:54.974Z,8.65
2022-08-26T15:35:21.714Z,7.13
2022-08-26T15:37:48.757Z,19.15
2022-08-26T15:40:16.331Z,15.13
2022-08-26T15:42:43.159Z,7.68
2022-08-26T15:45:11.866Z,13.02
2022-08-26T15:48:00.780Z,16.38
2022-08-26T15:50:29.020Z,5.68
2022-08-26T15:52:56.532Z,7.10
2022-08-26T15:55:23.614Z,70.47
2022-08-26T15:57:50.594Z,13.18
2022-08-26T16:00:18.241Z,15.75
2022-08-26T16:02:45.078Z,7.65
2022-08-26T16:05:13.159Z,26.60
2022-08-26T16:07:40.463Z,9.10
2022-08-26T16:10:07.831Z,15.25
2022-08-26T16:12:34.849Z,13.27
2022-08-26T16:15:02.040Z,21.38
2022-08-26T16:17:29.256Z,8.73
2022-08-26T16:19:56.338Z,14.85
2022-08-26T16:22:23.164Z,14.85
2022-08-26T16:24:50.582Z,23.77
2022-08-26T16:27:17.363Z,18.63
2022-08-26T16:29:44.189Z,16.80
2022-08-26T16:32:11.002Z,11.13
2022-08-26T16:34:38.267Z,18.92
2022-08-26T16:37:22.511Z,11.88
2022-08-26T16:39:49.505Z,18.25
2022-08-26T16:42:16.906Z,8.18
2022-08-26T16:44:44.531Z,12.02
2022-08-26T16:47:15.686Z,8.25
2022-08-26T16:49:42.567Z,10.18
2022-08-26T16:52:10.537Z,9.70
2022-08-26T16:54:39.729Z,7.85
2022-08-26T16:57:08.708Z,20.10
2022-08-26T16:59:35.983Z,10.93
2022-08-26T17:02:02.951Z,15.40
2022-08-26T17:04:29.815Z,15.32
2022-08-26T17:06:56.675Z,18.38
2022-08-26T17:09:23.993Z,29.80
2022-08-26T17:11:51.933Z,28.25
2022-08-26T17:14:19.635Z,17.92
2022-08-26T17:16:51.080Z,17.58
2022-08-26T17:19:19.885Z,9.65
2022-08-26T17:21:47.555Z,15.60
2022-08-26T17:24:14.780Z,17.65
2022-08-26T17:26:44.355Z,15.35
2022-08-26T17:29:15.284Z,17.08
2022-08-26T17:31:43.510Z,9.70
2022-08-26T17:34:10.577Z,12.35
2022-08-26T17:36:37.440Z,20.95
2022-08-26T17:39:04.496Z,8.27
2022-08-26T17:41:31.690Z,12.88
2022-08-26T17:43:58.549Z,15.30
2022-08-26T17:46:25.886Z,13.02
2022-08-26T17:48:52.886Z,20.95
2022-08-26T17:51:20.493Z,12.13
2022-08-26T17:53:47.908Z,14.48
2022-08-26T17:56:16.490Z,9.70
2022-08-26T17:58:50.990Z,12.20
2022-08-26T18:01:20.043Z,14.30
2022-08-26T18:03:47.200Z,10.10
2022-08-26T18:06:15.327Z,8.75
2022-08-26T18:08:42.771Z,7.65
2022-08-26T18:11:11.962Z,8.85
2022-08-26T18:13:46.945Z,10.98
2022-08-26T18:16:15.457Z,8.90
2022-08-26T18:18:43.228Z,12.55
2022-08-26T18:21:19.091Z,12.85
2022-08-26T18:23:46.971Z,12.27
2022-08-26T18:26:40.742Z,14.90
2022-08-26T18:29:08.035Z,14.40
2022-08-26T18:31:34.968Z,12.48
2022-08-26T18:34:02.559Z,13.07
2022-08-26T18:36:32.896Z,17.52
2022-08-26T18:39:00.229Z,13.27
2022-08-26T18:41:29.805Z,7.00
2022-08-26T18:43:57.139Z,12.98
2022-08-26T18:46:25.767Z,11.27
2022-08-26T18:48:54.564Z,16.88
2022-08-26T18:51:29.885Z,8.77
2022-08-26T18:53:57.312Z,34.00
2022-08-26T18:56:24.232Z,13.60
2022-08-26T18:58:51.354Z,22.80
2022-08-26T19:01:20.913Z,15.45
2022-08-26T19:03:51.287Z,21.50
2022-08-26T19:06:20.189Z,26.92
2022-08-26T19:08:49.696Z,10.32
2022-08-26T19:11:18.561Z,25.90
2022-08-26T19:14:01.126Z,16.88
2022-08-26T19:16:29.049Z,30.25
2022-08-26T19:18:56.514Z,19.02
2022-08-26T19:21:39.363Z,18.98
2022-08-26T19:24:12.239Z,16.60
2022-08-26T19:26:39.547Z,19.25
2022-08-26T19:29:06.767Z,13.02
2022-08-26T19:31:33.734Z,14.45
2022-08-26T19:34:01.018Z,22.90
2022-08-26T19:36:28.494Z,21.77
2022-08-26T19:38:56.689Z,24.73
2022-08-26T19:41:31.660Z,29.90
2022-08-26T19:44:09.775Z,26.60
2022-08-26T19:49:08.851Z,19.90
2022-08-26T19:51:36.468Z,17.50
2022-08-26T19:54:04.271Z,14.65
2022-08-26T19:56:31.234Z,22.42
2022-08-26T19:58:58.340Z,20.13
2022-08-26T20:01:25.639Z,20.67
2022-08-26T20:03:53.185Z,13.02
2022-08-26T20:06:20.414Z,18.70
2022-08-26T20:08:47.898Z,13.63
2022-08-26T20:11:18.761Z,17.45
2022-08-26T20:13:47.536Z,18.70
2022-08-26T20:16:16.169Z,17.85
2022-08-26T20:19:03.067Z,22.38
2022-08-26T20:21:33.231Z,16.13
2022-08-26T20:24:01.267Z,23.15
2022-08-26T20:26:29.894Z,28.30
2022-08-26T20:28:56.805Z,22.88
2022-08-26T20:31:24.237Z,18.25
2022-08-26T20:33:51.681Z,16.95
2022-08-26T20:36:20.439Z,15.18
2022-08-26T20:38:48.483Z,21.10
2022-08-26T20:41:15.355Z,35.88
2022-08-26T20:43:44.769Z,19.73
2022-08-26T20:46:18.141Z,29.70
2022-08-26T20:48:47.891Z,16.30
2022-08-26T20:51:15.772Z,19.90
2022-08-26T20:53:44.249Z,20.75
2022-08-26T20:56:12.730Z,18.40
2022-08-26T20:58:40.992Z,19.58
2022-08-26T21:01:09.267Z,15.57
2022-08-26T21:03:36.692Z,18.88
2022-08-26T21:06:03.903Z,17.05
2022-08-26T21:08:33.184Z,11.90
2022-08-26T21:11:01.984Z,17.52
2022-08-26T21:13:42.872Z,13.35
2022-08-26T21:16:19.456Z,8.32
2022-08-26T21:18:46.933Z,7.55
2022-08-26T21:21:16.305Z,13.85
2022-08-26T21:23:43.152Z,9.35
2022-08-26T21:26:11.981Z,10.93
2022-08-26T21:28:40.566Z,7.95
2022-08-26T21:31:10.659Z,18.85
2022-08-26T21:33:38.370Z,15.43
2022-08-26T21:36:09.387Z,21.10
2022-08-26T21:38:36.940Z,12.60
2022-08-26T21:41:07.539Z,17.95
2022-08-26T21:43:35.795Z,20.33
2022-08-26T21:46:12.526Z,18.75
2022-08-26T21:48:50.506Z,15.02
2022-08-26T21:51:20.345Z,12.13
2022-08-26T21:53:47.821Z,12.25
2022-08-26T21:56:18.025Z,12.45
2022-08-26T21:58:45.587Z,9.35
2022-08-26T22:01:16.098Z,8.95
2022-08-26T22:03:47.552Z,11.77
2022-08-26T22:06:19.891Z,13.52
2022-08-26T22:08:46.965Z,9.15
2022-08-26T22:11:15.662Z,5.65
2022-08-26T22:13:43.305Z,7.22
2022-08-26T22:16:11.293Z,10.82
2022-08-26T22:18:39.005Z,7.55
2022-08-26T22:21:09.737Z,6.10
2022-08-26T22:23:38.000Z,10.15
2022-08-26T22:26:09.114Z,10.35
2022-08-26T22:28:36.602Z,5.75
2022-08-26T22:31:03.489Z,6.38
2022-08-26T22:33:30.363Z,4.32
2022-08-26T22:35:57.674Z,9.15
2022-08-26T22:38:24.889Z,5.30
2022-08-26T22:40:56.055Z,12.20
2022-08-26T22:43:24.497Z,6.07
2022-08-26T22:45:53.112Z,4.13
2022-08-26T22:48:22.754Z,6.50
2022-08-26T22:50:51.013Z,10.65
2022-08-26T22:53:18.417Z,10.13
2022-08-26T22:55:45.916Z,8.48
2022-08-26T22:58:14.742Z,7.80
2022-08-26T23:00:43.048Z,11.98
2022-08-26T23:03:11.592Z,5.78
2022-08-26T23:05:39.650Z,8.13
2022-08-26T23:08:08.932Z,5.80
2022-08-26T23:10:37.093Z,4.68
2022-08-26T23:13:05.506Z,8.13
2022-08-26T23:15:32.988Z,9.75
2022-08-26T23:18:00.092Z,9.55
2022-08-26T23:20:27.973Z,6.57
2022-08-26T23:22:55.938Z,9.32
2022-08-26T23:25:23.145Z,11.75
2022-08-26T23:27:51.962Z,14.55
2022-08-26T23:30:21.936Z,7.72
2022-08-26T23:32:48.907Z,6.55
2022-08-26T23:35:20.830Z,4.97
2022-08-26T23:40:25.811Z,11.05
2022-08-26T23:42:54.222Z,16.50
2022-08-26T23:45:22.510Z,7.88
2022-08-26T23:47:50.611Z,14.77
2022-08-26T23:50:19.606Z,8.00
2022-08-26T23:53:05.209Z,8.60
2022-08-26T23:55:36.699Z,10.68
2022-08-26T23:58:04.201Z,5.68
